createdAt,value
2018-06-23T00:00:18.588Z,69.8
2018-06-23T00:01:18.689Z,69.8
2018-06-23T00:02:18.068Z,70.0
2018-06-23T00:03:18.441Z,69.2
2018-06-23T00:04:17.784Z,69.3
2018-06-23T00:05:18.158Z,69.3
2018-06-23T00:06:18.504Z,69.4
2018-06-23T00:07:17.840Z,69.5
2018-06-23T00:08:18.177Z,69.5
2018-06-23T00:09:18.492Z,69.4
2018-06-23T00:10:17.861Z,69.1
2018-06-23T00:11:17.957Z,69.0
2018-06-23T00:12:18.320Z,69.0
2018-06-23T00:13:18.653Z,69.3
2018-06-23T00:14:18.037Z,69.4
2018-06-23T00:15:18.388Z,69.7
2018-06-23T00:16:18.721Z,69.7
2018-06-23T00:17:18.080Z,70.2
2018-06-23T00:18:18.433Z,69.8
2018-06-23T00:19:17.753Z,69.8
2018-06-23T00:20:18.139Z,70.1
2018-06-23T00:21:18.229Z,70.1
2018-06-23T00:22:18.591Z,70.1
2018-06-23T00:23:17.914Z,70.2
2018-06-23T00:24:18.267Z,70.2
2018-06-23T00:25:18.578Z,70.2
2018-06-23T00:26:17.864Z,70.2
2018-06-23T00:27:18.131Z,70.0
2018-06-23T00:28:18.381Z,70.5
2018-06-23T00:29:18.922Z,70.6
2018-06-23T00:30:18.190Z,70.8
2018-06-23T00:31:18.230Z,70.7
2018-06-23T00:32:18.494Z,70.8
2018-06-23T00:33:17.750Z,70.7
2018-06-23T00:34:18.012Z,70.7
2018-06-23T00:35:18.267Z,70.8
2018-06-23T00:36:18.530Z,70.9
2018-06-23T00:37:17.798Z,71.1
2018-06-23T00:38:18.069Z,71.2
2018-06-23T00:39:18.333Z,71.0
2018-06-23T00:40:18.608Z,71.7
2018-06-23T00:41:18.644Z,71.5
2018-06-23T00:42:17.906Z,72.0
2018-06-23T00:43:18.158Z,72.2
2018-06-23T00:44:18.426Z,72.2
2018-06-23T00:45:17.690Z,72.3
2018-06-23T00:46:17.952Z,72.5
2018-06-23T00:47:18.205Z,72.6
2018-06-23T00:48:18.463Z,72.7
2018-06-23T00:49:17.730Z,72.9
2018-06-23T00:50:18.021Z,73.0
2018-06-23T00:51:18.042Z,73.2
2018-06-23T00:52:18.314Z,73.2
2018-06-23T00:53:18.575Z,73.3
2018-06-23T00:54:17.840Z,73.3
2018-06-23T00:55:18.103Z,73.4
2018-06-23T00:56:18.365Z,73.5
2018-06-23T00:57:18.626Z,73.5
2018-06-23T00:58:17.884Z,73.7
2018-06-23T00:59:18.151Z,73.8
2018-06-23T01:00:18.416Z,74.1
2018-06-23T01:01:18.581Z,74.0
2018-06-23T01:02:17.838Z,74.2
2018-06-23T01:03:18.096Z,74.4
2018-06-23T01:04:18.358Z,74.3
2018-06-23T01:05:18.617Z,74.3
2018-06-23T01:06:17.882Z,74.5
2018-06-23T01:07:18.144Z,74.7
2018-06-23T01:08:18.399Z,75.0
2018-06-23T01:09:18.667Z,75.1
2018-06-23T01:10:17.940Z,75.4
2018-06-23T01:11:17.992Z,75.3
2018-06-23T01:12:18.266Z,75.4
2018-06-23T01:13:18.532Z,75.6
2018-06-23T01:14:17.795Z,75.8
2018-06-23T01:15:18.062Z,75.8
2018-06-23T01:16:18.324Z,75.5
2018-06-23T01:17:18.595Z,75.5
2018-06-23T01:18:17.851Z,75.4
2018-06-23T01:19:18.116Z,75.4
2018-06-23T01:20:18.390Z,75.8
2018-06-23T01:21:18.444Z,75.5
2018-06-23T01:22:17.724Z,75.8
2018-06-23T01:23:17.996Z,76.0
2018-06-23T01:24:18.263Z,76.5
2018-06-23T01:25:18.522Z,76.0
2018-06-23T01:26:17.780Z,76.2
2018-06-23T01:27:18.045Z,76.4
2018-06-23T01:28:18.606Z,76.0
2018-06-23T01:29:17.870Z,76.5
2018-06-23T01:30:18.129Z,76.5
2018-06-23T01:31:18.187Z,75.3
2018-06-23T01:32:18.451Z,76.0
2018-06-23T01:33:17.710Z,76.1
2018-06-23T01:34:17.972Z,76.5
2018-06-23T01:35:18.247Z,76.9
2018-06-23T01:36:18.509Z,77.0
2018-06-23T01:37:17.788Z,76.4
2018-06-23T01:38:18.051Z,76.7
2018-06-23T01:39:18.307Z,76.6
2018-06-23T01:40:18.591Z,76.5
2018-06-23T01:41:18.633Z,76.6
2018-06-23T01:42:17.901Z,77.0
2018-06-23T01:43:18.164Z,77.0
2018-06-23T01:44:18.436Z,77.4
2018-06-23T01:45:17.690Z,77.5
2018-06-23T01:46:17.957Z,77.8
2018-06-23T01:47:18.220Z,78.2
2018-06-23T01:48:18.497Z,78.2
2018-06-23T01:49:17.761Z,78.4
2018-06-23T01:50:18.026Z,78.6
2018-06-23T01:51:18.068Z,78.7
2018-06-23T01:52:18.328Z,78.8
2018-06-23T01:53:18.590Z,79.1
2018-06-23T01:54:17.850Z,79.2
2018-06-23T01:55:18.112Z,79.4
2018-06-23T01:56:18.379Z,79.7
2018-06-23T01:57:18.645Z,79.8
2018-06-23T01:58:17.908Z,79.7
2018-06-23T01:59:18.538Z,79.8
2018-06-23T02:00:17.816Z,80.0
2018-06-23T02:01:18.559Z,80.1
2018-06-23T02:02:17.827Z,80.2
2018-06-23T02:03:18.086Z,80.2
2018-06-23T02:04:18.348Z,80.2
2018-06-23T02:05:18.610Z,80.6
2018-06-23T02:06:17.878Z,80.6
2018-06-23T02:07:18.149Z,80.7
2018-06-23T02:08:18.413Z,81.0
2018-06-23T02:09:17.674Z,81.2
2018-06-23T02:10:17.945Z,81.1
2018-06-23T02:11:17.989Z,81.3
2018-06-23T02:12:18.248Z,81.8
2018-06-23T02:13:18.697Z,81.7
2018-06-23T02:14:17.951Z,81.9
2018-06-23T02:15:18.212Z,82.2
2018-06-23T02:16:18.485Z,82.3
2018-06-23T02:17:17.746Z,82.5
2018-06-23T02:18:18.008Z,82.8
2018-06-23T02:19:18.272Z,82.8
2018-06-23T02:20:18.545Z,83.0
2018-06-23T02:21:18.568Z,83.1
2018-06-23T02:22:17.828Z,83.1
2018-06-23T02:23:18.093Z,83.2
2018-06-23T02:24:18.368Z,83.6
2018-06-23T02:25:18.632Z,83.6
2018-06-23T02:26:17.901Z,83.5
2018-06-23T02:27:18.156Z,83.6
2018-06-23T02:28:18.415Z,83.6
2018-06-23T02:29:17.684Z,83.8
2018-06-23T02:30:17.957Z,83.8
2018-06-23T02:31:18.010Z,83.3
2018-06-23T02:32:18.269Z,83.8
2018-06-23T02:33:18.524Z,83.6
2018-06-23T02:34:17.791Z,83.5
2018-06-23T02:35:18.053Z,83.3
2018-06-23T02:36:18.319Z,83.8
2018-06-23T02:37:18.579Z,84.1
2018-06-23T02:38:17.844Z,84.2
2018-06-23T02:39:18.100Z,84.3
2018-06-23T02:40:18.382Z,84.6
2018-06-23T02:41:18.404Z,84.8
2018-06-23T02:42:18.662Z,84.8
2018-06-23T02:43:17.930Z,85.0
2018-06-23T02:44:18.190Z,84.9
2018-06-23T02:45:18.456Z,84.8
2018-06-23T02:46:17.731Z,84.5
2018-06-23T02:47:18.010Z,84.4
2018-06-23T02:48:18.273Z,84.1
2018-06-23T02:49:18.634Z,84.4
2018-06-23T02:50:18.224Z,84.2
2018-06-23T02:51:17.949Z,84.1
2018-06-23T02:52:18.203Z,84.2
2018-06-23T02:53:18.465Z,84.2
2018-06-23T02:54:17.711Z,84.1
2018-06-23T02:55:18.190Z,84.2
2018-06-23T02:56:18.462Z,84.1
2018-06-23T02:57:17.720Z,84.2
2018-06-23T02:58:17.985Z,84.2
2018-06-23T02:59:18.246Z,84.2
2018-06-23T03:00:18.523Z,84.2
2018-06-23T03:01:18.640Z,84.1
2018-06-23T03:02:17.908Z,84.2
2018-06-23T03:03:18.186Z,84.1
2018-06-23T03:04:18.444Z,84.0
2018-06-23T03:05:17.710Z,83.8
2018-06-23T03:06:17.976Z,83.8
2018-06-23T03:07:18.253Z,84.2
2018-06-23T03:08:18.528Z,84.0
2018-06-23T03:09:17.798Z,83.8
2018-06-23T03:10:18.064Z,83.7
2018-06-23T03:11:18.115Z,81.8
2018-06-23T03:12:18.372Z,82.4
2018-06-23T03:13:18.646Z,82.7
2018-06-23T03:14:17.914Z,83.2
2018-06-23T03:15:18.178Z,83.0
2018-06-23T03:16:18.540Z,83.2
2018-06-23T03:17:17.820Z,83.1
2018-06-23T03:18:18.077Z,83.2
2018-06-23T03:19:18.590Z,83.2
2018-06-23T03:20:17.865Z,82.6
2018-06-23T03:21:17.909Z,82.7
2018-06-23T03:22:18.169Z,82.8
2018-06-23T03:23:18.425Z,82.9
2018-06-23T03:24:17.684Z,83.0
2018-06-23T03:25:17.969Z,83.3
2018-06-23T03:26:18.227Z,83.4
2018-06-23T03:27:18.484Z,83.6
2018-06-23T03:28:17.746Z,83.7
2018-06-23T03:29:18.007Z,83.5
2018-06-23T03:30:18.271Z,83.6
2018-06-23T03:31:18.320Z,83.8
2018-06-23T03:32:18.581Z,83.8
2018-06-23T03:33:17.836Z,84.1
2018-06-23T03:34:18.094Z,84.0
2018-06-23T03:35:18.355Z,84.2
2018-06-23T03:36:18.616Z,84.2
2018-06-23T03:37:17.883Z,84.2
2018-06-23T03:38:18.140Z,84.3
2018-06-23T03:39:18.406Z,84.3
2018-06-23T03:40:18.668Z,84.3
2018-06-23T03:41:17.702Z,84.3
2018-06-23T03:42:17.974Z,84.5
2018-06-23T03:43:18.237Z,84.6
2018-06-23T03:44:18.493Z,84.4
2018-06-23T03:45:17.754Z,84.3
2018-06-23T03:46:18.008Z,84.4
2018-06-23T03:47:18.267Z,84.5
2018-06-23T03:48:18.531Z,84.5
2018-06-23T03:49:17.796Z,84.5
2018-06-23T03:50:18.061Z,84.6
2018-06-23T03:51:18.111Z,84.6
2018-06-23T03:52:18.377Z,84.6
2018-06-23T03:53:18.637Z,84.8
2018-06-23T03:54:17.904Z,84.8
2018-06-23T03:55:18.168Z,84.7
2018-06-23T03:56:18.429Z,84.6
2018-06-23T03:57:17.686Z,84.5
2018-06-23T03:58:17.948Z,84.7
2018-06-23T03:59:18.217Z,84.7
2018-06-23T04:00:18.485Z,84.8
2018-06-23T04:01:18.534Z,84.8
2018-06-23T04:02:17.797Z,84.8
2018-06-23T04:03:18.060Z,84.7
2018-06-23T04:04:18.323Z,84.7
2018-06-23T04:05:18.588Z,84.7
2018-06-23T04:06:17.844Z,84.7
2018-06-23T04:07:18.110Z,84.6
2018-06-23T04:08:18.370Z,84.5
2018-06-23T04:09:18.647Z,84.4
2018-06-23T04:10:17.926Z,84.2
2018-06-23T04:11:17.963Z,84.2
2018-06-23T04:12:18.227Z,83.7
2018-06-23T04:13:18.488Z,83.4
2018-06-23T04:14:17.756Z,83.6
2018-06-23T04:15:18.019Z,83.5
2018-06-23T04:16:18.279Z,83.1
2018-06-23T04:17:18.547Z,83.2
2018-06-23T04:18:17.803Z,83.1
2018-06-23T04:19:18.062Z,83.1
2018-06-23T04:20:18.326Z,82.8
2018-06-23T04:21:18.377Z,82.2
2018-06-23T04:22:18.647Z,81.6
2018-06-23T04:23:17.927Z,81.8
2018-06-23T04:24:18.186Z,81.8
2018-06-23T04:25:18.455Z,81.1
2018-06-23T04:26:17.732Z,81.2
2018-06-23T04:27:17.999Z,80.3
2018-06-23T04:28:18.381Z,80.1
2018-06-23T04:29:18.757Z,79.5
2018-06-23T04:30:18.101Z,79.1
2018-06-23T04:31:18.141Z,78.3
2018-06-23T04:32:18.410Z,78.2
2018-06-23T04:33:18.672Z,77.4
2018-06-23T04:34:17.937Z,77.3
2018-06-23T04:35:18.198Z,76.8
2018-06-23T04:36:18.461Z,76.0
2018-06-23T04:37:17.721Z,75.9
2018-06-23T04:38:17.976Z,75.5
2018-06-23T04:39:18.285Z,74.7
2018-06-23T04:40:18.552Z,74.5
2018-06-23T04:41:18.590Z,74.8
2018-06-23T04:42:17.844Z,74.1
2018-06-23T04:43:18.103Z,74.7
2018-06-23T04:44:18.365Z,74.8
2018-06-23T04:45:18.624Z,75.0
2018-06-23T04:46:17.884Z,75.0
2018-06-23T04:47:18.143Z,74.5
2018-06-23T04:48:18.403Z,74.4
2018-06-23T04:49:18.669Z,74.5
2018-06-23T04:50:17.934Z,73.9
2018-06-23T04:51:17.986Z,74.4
2018-06-23T04:52:18.252Z,74.5
2018-06-23T04:53:18.552Z,74.7
2018-06-23T04:54:17.809Z,74.7
2018-06-23T04:55:18.068Z,74.4
2018-06-23T04:56:18.325Z,74.3
2018-06-23T04:57:18.866Z,74.0
2018-06-23T04:58:18.123Z,74.1
2018-06-23T04:59:18.383Z,74.0
2018-06-23T05:00:18.744Z,73.8
2018-06-23T05:01:17.679Z,73.2
2018-06-23T05:02:17.948Z,73.8
2018-06-23T05:03:18.204Z,73.6
2018-06-23T05:04:18.468Z,73.1
2018-06-23T05:05:17.729Z,73.1
2018-06-23T05:06:17.995Z,73.1
2018-06-23T05:07:18.254Z,72.7
2018-06-23T05:08:18.504Z,72.5
2018-06-23T05:09:17.757Z,72.8
2018-06-23T05:10:18.040Z,72.5
2018-06-23T05:11:18.049Z,72.9
2018-06-23T05:12:18.383Z,72.8
2018-06-23T05:13:18.661Z,72.7
2018-06-23T05:14:17.928Z,72.8
2018-06-23T05:15:18.191Z,73.0
2018-06-23T05:16:18.465Z,72.8
2018-06-23T05:17:17.740Z,72.7
2018-06-23T05:18:18.005Z,73.0
2018-06-23T05:19:18.259Z,72.9
2018-06-23T05:20:18.698Z,73.2
2018-06-23T05:21:18.573Z,72.8
2018-06-23T05:22:17.830Z,72.7
2018-06-23T05:23:18.095Z,73.0
2018-06-23T05:24:18.353Z,73.2
2018-06-23T05:25:18.613Z,73.3
2018-06-23T05:26:17.876Z,73.5
2018-06-23T05:27:18.144Z,73.1
2018-06-23T05:28:18.413Z,73.1
2018-06-23T05:29:18.676Z,73.0
2018-06-23T05:30:17.949Z,73.2
2018-06-23T05:31:18.000Z,72.8
2018-06-23T05:32:18.257Z,72.8
2018-06-23T05:33:18.515Z,72.7
2018-06-23T05:34:17.771Z,72.5
2018-06-23T05:35:18.048Z,72.4
2018-06-23T05:36:18.314Z,72.0
2018-06-23T05:37:18.592Z,71.5
2018-06-23T05:38:17.851Z,72.1
2018-06-23T05:39:18.108Z,72.2
2018-06-23T05:40:18.388Z,72.3
2018-06-23T05:41:18.411Z,71.4
2018-06-23T05:42:17.665Z,71.5
2018-06-23T05:43:17.932Z,71.6
2018-06-23T05:44:18.198Z,71.5
2018-06-23T05:45:18.472Z,72.0
2018-06-23T05:46:17.732Z,71.7
2018-06-23T05:47:17.997Z,71.6
2018-06-23T05:48:18.263Z,71.5
2018-06-23T05:49:18.524Z,71.0
2018-06-23T05:50:17.784Z,71.5
2018-06-23T05:51:17.949Z,71.1
2018-06-23T05:52:18.237Z,71.0
2018-06-23T05:53:18.502Z,70.8
2018-06-23T05:54:17.760Z,70.8
2018-06-23T05:55:18.021Z,70.5
2018-06-23T05:56:18.277Z,70.7
2018-06-23T05:57:18.543Z,70.4
2018-06-23T05:58:18.086Z,70.5
2018-06-23T05:59:18.342Z,70.4
2018-06-23T06:00:18.631Z,70.5
2018-06-23T06:01:18.654Z,70.7
2018-06-23T06:02:17.926Z,70.5
2018-06-23T06:03:18.190Z,70.5
2018-06-23T06:04:18.457Z,70.3
2018-06-23T06:05:17.727Z,70.3
2018-06-23T06:06:17.984Z,69.9
2018-06-23T06:07:18.238Z,70.8
2018-06-23T06:08:18.492Z,69.7
2018-06-23T06:09:17.765Z,69.8
2018-06-23T06:10:18.050Z,69.0
2018-06-23T06:11:18.076Z,69.2
2018-06-23T06:12:18.338Z,68.2
2018-06-23T06:13:18.619Z,68.0
2018-06-23T06:14:17.883Z,67.2
2018-06-23T06:15:18.145Z,67.5
2018-06-23T06:16:18.409Z,66.2
2018-06-23T06:17:18.671Z,66.2
2018-06-23T06:18:17.941Z,66.0
2018-06-23T06:19:18.209Z,66.3
2018-06-23T06:20:18.481Z,66.6
2018-06-23T06:21:18.521Z,66.7
2018-06-23T06:22:17.786Z,66.2
2018-06-23T06:23:18.062Z,65.9
2018-06-23T06:24:18.318Z,65.8
2018-06-23T06:25:18.579Z,65.0
2018-06-23T06:26:17.846Z,64.8
2018-06-23T06:27:18.109Z,64.8
2018-06-23T06:28:18.373Z,63.3
2018-06-23T06:29:18.642Z,62.9
2018-06-23T06:30:17.905Z,62.8
2018-06-23T06:31:17.961Z,61.9
2018-06-23T06:32:18.217Z,62.5
2018-06-23T06:33:18.581Z,61.0
2018-06-23T06:34:17.847Z,61.3
2018-06-23T06:35:18.100Z,60.7
2018-06-23T06:36:18.362Z,61.2
2018-06-23T06:37:18.623Z,60.6
2018-06-23T06:38:17.883Z,61.4
2018-06-23T06:39:18.145Z,61.5
2018-06-23T06:40:18.422Z,62.1
2018-06-23T06:41:18.430Z,61.5
2018-06-23T06:42:17.692Z,61.2
2018-06-23T06:43:17.955Z,61.2
2018-06-23T06:44:18.225Z,60.9
2018-06-23T06:45:18.492Z,60.3
2018-06-23T06:46:17.751Z,61.5
2018-06-23T06:47:18.008Z,60.1
2018-06-23T06:48:18.277Z,58.9
2018-06-23T06:49:18.537Z,57.9
2018-06-23T06:50:17.795Z,57.5
2018-06-23T06:51:17.849Z,55.8
2018-06-23T06:52:18.107Z,56.3
2018-06-23T06:53:18.368Z,55.9
2018-06-23T06:54:18.631Z,56.3
2018-06-23T06:55:17.894Z,55.0
2018-06-23T06:56:18.152Z,55.5
2018-06-23T06:57:18.416Z,53.8
2018-06-23T06:58:17.675Z,54.1
2018-06-23T06:59:17.939Z,53.9
2018-06-23T07:00:18.221Z,54.9
2018-06-23T07:01:18.239Z,55.2
2018-06-23T07:02:18.507Z,55.3
2018-06-23T07:03:17.766Z,57.2
2018-06-23T07:04:18.028Z,56.6
2018-06-23T07:05:18.291Z,57.9
2018-06-23T07:06:18.552Z,57.3
2018-06-23T07:07:17.806Z,56.6
2018-06-23T07:08:18.092Z,57.1
2018-06-23T07:09:18.359Z,57.7
2018-06-23T07:10:18.629Z,59.6
2018-06-23T07:11:18.678Z,59.7
2018-06-23T07:12:17.934Z,60.7
2018-06-23T07:13:18.209Z,61.1
2018-06-23T07:14:18.480Z,61.1
2018-06-23T07:15:17.762Z,62.1
2018-06-23T07:16:18.020Z,60.0
2018-06-23T07:17:18.278Z,59.0
2018-06-23T07:18:18.568Z,59.1
2018-06-23T07:19:17.832Z,59.0
2018-06-23T07:20:18.100Z,59.2
2018-06-23T07:21:18.150Z,59.2
2018-06-23T07:22:18.409Z,59.4
2018-06-23T07:23:18.672Z,59.9
2018-06-23T07:24:17.931Z,60.0
2018-06-23T07:25:18.197Z,59.9
2018-06-23T07:26:18.458Z,58.9
2018-06-23T07:27:17.714Z,57.7
2018-06-23T07:28:17.979Z,56.5
2018-06-23T07:29:18.240Z,54.7
2018-06-23T07:30:18.525Z,54.8
2018-06-23T07:31:18.567Z,53.5
2018-06-23T07:32:17.824Z,53.4
2018-06-23T07:33:18.087Z,53.5
2018-06-23T07:34:18.498Z,52.8
2018-06-23T07:35:18.554Z,52.3
2018-06-23T07:36:17.932Z,53.4
2018-06-23T07:37:18.197Z,54.6
2018-06-23T07:38:18.451Z,54.6
2018-06-23T07:39:17.713Z,54.2
2018-06-23T07:40:17.991Z,54.0
2018-06-23T07:41:18.036Z,52.2
2018-06-23T07:42:18.300Z,51.8
2018-06-23T07:43:18.852Z,49.9
2018-06-23T07:44:18.111Z,48.8
2018-06-23T07:45:18.392Z,49.5
2018-06-23T07:46:18.661Z,48.2
2018-06-23T07:47:17.922Z,47.5
2018-06-23T07:48:18.181Z,49.2
2018-06-23T07:49:18.445Z,48.5
2018-06-23T07:50:17.704Z,49.0
2018-06-23T07:51:17.750Z,48.5
2018-06-23T07:52:18.016Z,49.2
2018-06-23T07:53:18.282Z,50.2
2018-06-23T07:54:18.553Z,51.1
2018-06-23T07:55:17.810Z,51.0
2018-06-23T07:56:18.197Z,52.2
2018-06-23T07:57:18.460Z,52.6
2018-06-23T07:58:17.720Z,51.7
2018-06-23T07:59:17.983Z,52.5
2018-06-23T08:00:18.263Z,53.2
2018-06-23T08:01:18.325Z,52.8
2018-06-23T08:02:18.577Z,52.5
2018-06-23T08:03:17.841Z,52.2
2018-06-23T08:04:18.101Z,52.5
2018-06-23T08:05:18.364Z,53.1
2018-06-23T08:06:18.621Z,53.1
2018-06-23T08:07:17.898Z,52.5
2018-06-23T08:08:18.156Z,53.1
2018-06-23T08:09:18.415Z,52.6
2018-06-23T08:10:18.675Z,51.7
2018-06-23T08:11:17.724Z,51.8
2018-06-23T08:12:17.982Z,52.0
2018-06-23T08:13:18.245Z,51.6
2018-06-23T08:14:18.507Z,51.8
2018-06-23T08:15:17.779Z,51.5
2018-06-23T08:16:18.037Z,51.7
2018-06-23T08:17:18.353Z,51.8
2018-06-23T08:18:18.614Z,50.1
2018-06-23T08:19:17.875Z,49.2
2018-06-23T08:20:18.136Z,48.2
2018-06-23T08:21:18.181Z,47.4
2018-06-23T08:22:18.431Z,47.4
2018-06-23T08:23:17.692Z,46.7
2018-06-23T08:24:17.955Z,47.8
2018-06-23T08:25:18.215Z,48.0
2018-06-23T08:26:18.576Z,48.0
2018-06-23T08:27:17.845Z,47.2
2018-06-23T08:28:18.101Z,45.9
2018-06-23T08:29:18.353Z,45.9
2018-06-23T08:30:18.625Z,46.6
2018-06-23T08:31:18.670Z,46.4
2018-06-23T08:32:17.933Z,45.4
2018-06-23T08:33:18.188Z,44.0
2018-06-23T08:34:18.451Z,45.5
2018-06-23T08:35:17.717Z,47.5
2018-06-23T08:36:17.978Z,47.8
2018-06-23T08:37:18.260Z,47.8
2018-06-23T08:38:18.517Z,45.0
2018-06-23T08:39:17.775Z,45.4
2018-06-23T08:40:18.051Z,46.8
2018-06-23T08:41:18.079Z,47.1
2018-06-23T08:42:18.340Z,47.0
2018-06-23T08:43:18.604Z,48.3
2018-06-23T08:44:17.874Z,48.9
2018-06-23T08:45:18.149Z,48.7
2018-06-23T08:46:18.410Z,47.1
2018-06-23T08:47:18.735Z,45.9
2018-06-23T08:48:17.995Z,46.3
2018-06-23T08:49:18.262Z,47.0
2018-06-23T08:50:18.528Z,47.5
2018-06-23T08:51:18.569Z,47.3
2018-06-23T08:52:17.826Z,45.9
2018-06-23T08:53:18.085Z,45.3
2018-06-23T08:54:18.342Z,44.9
2018-06-23T08:55:18.618Z,44.5
2018-06-23T08:56:17.881Z,44.2
2018-06-23T08:57:18.149Z,45.5
2018-06-23T08:58:18.413Z,46.3
2018-06-23T08:59:18.666Z,45.8
2018-06-23T09:00:17.941Z,44.8
2018-06-23T09:01:17.990Z,45.1
2018-06-23T09:02:18.253Z,44.5
2018-06-23T09:03:18.523Z,43.2
2018-06-23T09:04:17.782Z,44.0
2018-06-23T09:05:18.078Z,43.2
2018-06-23T09:06:18.353Z,43.0
2018-06-23T09:07:18.625Z,40.6
2018-06-23T09:08:18.209Z,41.8
2018-06-23T09:09:18.465Z,40.5
2018-06-23T09:10:17.741Z,40.1
2018-06-23T09:11:17.812Z,38.5
2018-06-23T09:12:18.070Z,38.2
2018-06-23T09:13:18.329Z,40.2
2018-06-23T09:14:18.601Z,40.5
2018-06-23T09:15:17.861Z,41.9
2018-06-23T09:16:18.134Z,42.1
2018-06-23T09:17:18.397Z,44.0
2018-06-23T09:18:18.655Z,44.5
2018-06-23T09:19:17.915Z,43.7
2018-06-23T09:20:18.199Z,42.8
2018-06-23T09:21:18.207Z,43.3
2018-06-23T09:22:18.462Z,43.7
2018-06-23T09:23:17.732Z,43.0
2018-06-23T09:24:17.996Z,41.9
2018-06-23T09:25:18.258Z,42.8
2018-06-23T09:26:18.519Z,38.2
2018-06-23T09:27:17.777Z,38.6
2018-06-23T09:28:18.038Z,38.5
2018-06-23T09:29:18.301Z,39.6
2018-06-23T09:30:18.563Z,39.4
2018-06-23T09:31:18.605Z,37.5
2018-06-23T09:32:17.873Z,40.7
2018-06-23T09:33:18.138Z,39.9
2018-06-23T09:34:18.405Z,39.0
2018-06-23T09:35:18.668Z,38.0
2018-06-23T09:36:17.930Z,37.8
2018-06-23T09:37:18.194Z,40.2
2018-06-23T09:38:18.456Z,40.5
2018-06-23T09:39:17.717Z,40.6
2018-06-23T09:40:17.983Z,40.1
2018-06-23T09:41:18.027Z,39.1
2018-06-23T09:42:18.295Z,38.5
2018-06-23T09:43:18.548Z,37.2
2018-06-23T09:44:17.811Z,39.5
2018-06-23T09:45:18.079Z,38.3
2018-06-23T09:46:18.339Z,38.7
2018-06-23T09:47:18.601Z,37.5
2018-06-23T09:48:17.861Z,37.1
2018-06-23T09:49:18.136Z,36.5
2018-06-23T09:50:18.401Z,37.9
2018-06-23T09:51:18.434Z,37.8
2018-06-23T09:52:17.694Z,37.3
2018-06-23T09:53:17.952Z,39.1
2018-06-23T09:54:18.198Z,38.6
2018-06-23T09:55:18.466Z,37.5
2018-06-23T09:56:17.731Z,35.4
2018-06-23T09:57:17.993Z,35.6
2018-06-23T09:58:18.253Z,36.0
2018-06-23T09:59:18.527Z,35.5
2018-06-23T10:00:17.806Z,34.8
2018-06-23T10:01:17.854Z,35.1
2018-06-23T10:02:18.132Z,34.9
2018-06-23T10:03:18.637Z,34.4
2018-06-23T10:04:17.987Z,35.2
2018-06-23T10:05:18.255Z,36.5
2018-06-23T10:06:18.511Z,36.5
2018-06-23T10:07:17.977Z,34.6
2018-06-23T10:08:18.430Z,35.8
2018-06-23T10:09:17.708Z,35.2
2018-06-23T10:10:17.973Z,35.5
2018-06-23T10:11:18.029Z,34.4
2018-06-23T10:12:18.295Z,34.3
2018-06-23T10:13:18.549Z,34.4
2018-06-23T10:14:17.800Z,35.7
2018-06-23T10:15:18.181Z,36.2
2018-06-23T10:16:18.437Z,35.8
2018-06-23T10:17:17.708Z,36.2
2018-06-23T10:18:17.968Z,36.2
2018-06-23T10:19:18.232Z,37.2
2018-06-23T10:20:18.502Z,37.5
2018-06-23T10:21:18.546Z,37.5
2018-06-23T10:22:17.803Z,38.2
2018-06-23T10:23:18.069Z,39.0
2018-06-23T10:24:18.337Z,38.4
2018-06-23T10:25:18.610Z,38.7
2018-06-23T10:26:17.870Z,40.1
2018-06-23T10:27:18.259Z,40.2
2018-06-23T10:28:18.521Z,40.8
2018-06-23T10:29:17.786Z,41.1
2018-06-23T10:30:18.067Z,41.3
2018-06-23T10:31:18.103Z,38.5
2018-06-23T10:32:18.365Z,38.9
2018-06-23T10:33:18.621Z,37.6
2018-06-23T10:34:17.873Z,36.6
2018-06-23T10:35:18.137Z,37.7
2018-06-23T10:36:18.395Z,36.5
2018-06-23T10:37:18.668Z,35.9
2018-06-23T10:38:18.037Z,36.0
2018-06-23T10:39:18.317Z,35.1
2018-06-23T10:40:18.575Z,36.5
2018-06-23T10:41:18.616Z,36.0
2018-06-23T10:42:17.886Z,36.9
2018-06-23T10:43:18.141Z,36.6
2018-06-23T10:44:18.402Z,35.3
2018-06-23T10:45:18.658Z,34.2
2018-06-23T10:46:18.013Z,35.4
2018-06-23T10:47:18.279Z,35.0
2018-06-23T10:48:18.536Z,35.2
2018-06-23T10:49:17.797Z,33.9
2018-06-23T10:50:18.063Z,35.6
2018-06-23T10:51:18.112Z,35.8
2018-06-23T10:52:18.376Z,36.0
2018-06-23T10:53:18.646Z,36.5
2018-06-23T10:54:17.909Z,38.5
2018-06-23T10:55:18.192Z,37.6
2018-06-23T10:56:18.454Z,38.3
2018-06-23T10:57:17.711Z,39.5
2018-06-23T10:58:17.983Z,39.8
2018-06-23T10:59:18.247Z,39.0
2018-06-23T11:00:18.506Z,39.1
2018-06-23T11:01:18.592Z,38.8
2018-06-23T11:02:17.853Z,39.2
2018-06-23T11:03:18.107Z,38.8
2018-06-23T11:04:18.371Z,39.1
2018-06-23T11:05:18.636Z,37.9
2018-06-23T11:06:17.899Z,37.5
2018-06-23T11:07:18.158Z,38.4
2018-06-23T11:08:18.420Z,38.8
2018-06-23T11:09:18.680Z,40.0
2018-06-23T11:10:17.960Z,40.0
2018-06-23T11:11:17.980Z,39.8
2018-06-23T11:12:18.244Z,40.1
2018-06-23T11:13:18.503Z,41.5
2018-06-23T11:14:17.768Z,41.6
2018-06-23T11:15:18.022Z,40.3
2018-06-23T11:16:18.284Z,40.2
2018-06-23T11:17:18.554Z,40.6
2018-06-23T11:18:17.812Z,40.5
2018-06-23T11:19:18.405Z,41.0
2018-06-23T11:20:18.666Z,41.4
2018-06-23T11:21:17.706Z,41.9
2018-06-23T11:22:17.975Z,42.5
2018-06-23T11:23:18.236Z,43.0
2018-06-23T11:24:18.713Z,44.0
2018-06-23T11:25:17.988Z,43.6
2018-06-23T11:26:18.250Z,43.7
2018-06-23T11:27:18.520Z,44.6
2018-06-23T11:28:17.788Z,44.1
2018-06-23T11:29:18.059Z,45.6
2018-06-23T11:30:18.332Z,44.6
2018-06-23T11:31:18.378Z,44.6
2018-06-23T11:32:18.883Z,44.8
2018-06-23T11:33:18.297Z,45.0
2018-06-23T11:34:18.842Z,45.0
2018-06-23T11:35:18.099Z,44.8
2018-06-23T11:36:18.367Z,45.0
2018-06-23T11:37:18.622Z,44.9
2018-06-23T11:38:17.876Z,44.3
2018-06-23T11:39:18.137Z,44.2
2018-06-23T11:40:18.408Z,44.3
2018-06-23T11:41:18.513Z,44.3
2018-06-23T11:42:17.839Z,44.0
2018-06-23T11:43:18.105Z,44.2
2018-06-23T11:44:18.367Z,43.8
2018-06-23T11:45:18.620Z,44.3
2018-06-23T11:46:17.882Z,44.5
2018-06-23T11:47:18.148Z,44.3
2018-06-23T11:48:18.416Z,44.7
2018-06-23T11:49:18.679Z,45.0
2018-06-23T11:50:17.942Z,44.5
2018-06-23T11:51:17.987Z,44.2
2018-06-23T11:52:18.571Z,44.3
2018-06-23T11:53:17.859Z,44.3
2018-06-23T11:54:18.126Z,44.0
2018-06-23T11:55:18.390Z,44.2
2018-06-23T11:56:18.671Z,45.7
2018-06-23T11:57:17.942Z,46.2
2018-06-23T11:58:18.196Z,46.5
2018-06-23T11:59:18.454Z,46.5
2018-06-23T12:00:17.716Z,45.8
2018-06-23T12:01:17.964Z,46.1
2018-06-23T12:02:18.225Z,46.0
2018-06-23T12:03:18.754Z,45.2
2018-06-23T12:04:18.022Z,46.0
2018-06-23T12:05:18.284Z,46.3
2018-06-23T12:06:18.547Z,45.8
2018-06-23T12:07:17.802Z,46.2
2018-06-23T12:08:18.065Z,46.3
2018-06-23T12:09:18.338Z,46.4
2018-06-23T12:10:18.607Z,46.8
2018-06-23T12:11:18.655Z,46.6
2018-06-23T12:12:17.912Z,47.0
2018-06-23T12:13:18.173Z,45.9
2018-06-23T12:14:18.439Z,45.8
2018-06-23T12:15:17.710Z,45.9
2018-06-23T12:16:17.970Z,46.1
2018-06-23T12:17:18.239Z,46.1
2018-06-23T12:18:18.505Z,46.4
2018-06-23T12:19:17.768Z,45.9
2018-06-23T12:20:18.034Z,45.7
2018-06-23T12:21:18.077Z,46.2
2018-06-23T12:22:18.342Z,46.4
2018-06-23T12:23:18.590Z,45.0
2018-06-23T12:24:17.854Z,46.1
2018-06-23T12:25:18.163Z,45.7
2018-06-23T12:26:18.430Z,47.4
2018-06-23T12:27:17.697Z,44.9
2018-06-23T12:28:17.960Z,44.8
2018-06-23T12:29:18.233Z,45.6
2018-06-23T12:30:18.542Z,45.5
2018-06-23T12:31:18.555Z,45.2
2018-06-23T12:32:17.808Z,46.0
2018-06-23T12:33:18.069Z,45.4
2018-06-23T12:34:18.420Z,45.2
2018-06-23T12:35:17.682Z,45.0
2018-06-23T12:36:17.949Z,45.8
2018-06-23T12:37:18.216Z,45.0
2018-06-23T12:38:18.483Z,45.1
2018-06-23T12:39:17.747Z,46.0
2018-06-23T12:40:18.072Z,46.5
2018-06-23T12:41:18.065Z,46.7
2018-06-23T12:42:18.320Z,46.8
2018-06-23T12:43:18.574Z,46.2
2018-06-23T12:44:17.845Z,46.2
2018-06-23T12:45:18.107Z,46.2
2018-06-23T12:46:18.373Z,47.4
2018-06-23T12:47:18.633Z,46.9
2018-06-23T12:48:17.888Z,46.3
2018-06-23T12:49:18.154Z,46.1
2018-06-23T12:50:18.410Z,46.8
2018-06-23T12:51:18.450Z,46.3
2018-06-23T12:52:17.711Z,47.7
2018-06-23T12:53:17.965Z,48.0
2018-06-23T12:54:18.226Z,48.5
2018-06-23T12:55:18.491Z,48.2
2018-06-23T12:56:17.751Z,48.3
2018-06-23T12:57:18.009Z,48.2
2018-06-23T12:58:18.269Z,48.9
2018-06-23T12:59:18.535Z,48.2
2018-06-23T13:00:17.819Z,48.2
2018-06-23T13:01:17.848Z,48.4
2018-06-23T13:02:18.107Z,49.1
2018-06-23T13:03:18.369Z,48.6
2018-06-23T13:04:18.623Z,49.4
2018-06-23T13:05:17.869Z,49.1
2018-06-23T13:06:18.131Z,49.5
2018-06-23T13:07:18.400Z,48.8
2018-06-23T13:08:18.669Z,48.8
2018-06-23T13:09:17.932Z,48.7
2018-06-23T13:10:18.200Z,49.4
2018-06-23T13:11:18.237Z,49.2
2018-06-23T13:12:18.508Z,49.3
2018-06-23T13:13:17.769Z,49.5
2018-06-23T13:14:18.026Z,49.3
2018-06-23T13:15:18.290Z,49.5
2018-06-23T13:16:18.575Z,49.9
2018-06-23T13:17:17.837Z,49.1
2018-06-23T13:18:18.106Z,49.6